Hereford, Oregon
Current Conditions -  °F | °C
As of 11:53 PM on Saturday 20 Dec 2014 (Local Time) from KBKE Reporting Station
Broken Clouds Broken Clouds  
Wind Chill: 36°   Ceiling: 10000
Heat Index: 36°   Visibility: 10mi
Dew Point: 36°   Wind: 0mph
Humidity: 100%   Direction: NA
Pressure: 29.77"   Gusts: NA
Location:  44.49°N, 118.03°W
Report Text: KBKE 210753Z AUTO 00000KT 10SM BKN100 02/02 A2977 RMK AO2 RAE36 SLP093 P0000 T00220022 400501006 TSNO
Loading
Personal Weather Stations






























Interactive Weather Map New forecast layout! Learn more

10-Day Weather Forecast

Advertisements
Track Severe Weather on mobile